createdAt,value
2023-05-10T00:00:32.341Z,14.35
2023-05-10T00:02:58.979Z,14.34
2023-05-10T00:05:25.763Z,14.31
2023-05-10T00:07:54.670Z,14.26
2023-05-10T00:10:21.301Z,14.29
2023-05-10T00:12:47.943Z,14.14
2023-05-10T00:15:14.688Z,14.27
2023-05-10T00:17:41.546Z,14.29
2023-05-10T00:20:08.709Z,14.26
2023-05-10T00:22:35.456Z,14.29
2023-05-10T00:25:02.398Z,14.20
2023-05-10T00:27:32.087Z,14.18
2023-05-10T00:29:58.769Z,14.25
2023-05-10T00:32:25.430Z,14.24
2023-05-10T00:34:55.956Z,14.23
2023-05-10T00:37:22.650Z,14.23
2023-05-10T00:39:54.256Z,14.23
2023-05-10T00:42:20.997Z,14.11
2023-05-10T00:44:49.802Z,14.20
2023-05-10T00:47:19.640Z,14.21
2023-05-10T00:49:46.968Z,14.20
2023-05-10T00:52:14.113Z,14.19
2023-05-10T00:54:40.759Z,14.18
2023-05-10T00:57:07.462Z,14.17
2023-05-10T00:59:36.465Z,14.13
2023-05-10T01:02:05.624Z,14.03
2023-05-10T01:04:32.470Z,14.17
2023-05-10T01:07:03.917Z,14.10
2023-05-10T01:09:30.728Z,13.89
2023-05-10T01:11:57.710Z,14.11
2023-05-10T01:14:25.869Z,14.16
2023-05-10T01:16:54.289Z,14.18
2023-05-10T01:19:27.003Z,14.18
2023-05-10T01:22:14.929Z,14.17
2023-05-10T01:25:03.745Z,14.16
2023-05-10T01:27:57.573Z,14.14
2023-05-10T01:30:48.365Z,14.14
2023-05-10T01:33:33.272Z,14.12
2023-05-10T01:36:12.854Z,14.11
2023-05-10T01:38:52.897Z,14.07
2023-05-10T01:41:31.929Z,14.08
2023-05-10T01:44:14.469Z,13.86
2023-05-10T01:46:42.006Z,14.01
2023-05-10T01:49:21.415Z,13.99
2023-05-10T01:51:55.973Z,13.96
2023-05-10T01:54:27.426Z,13.93
2023-05-10T01:56:59.779Z,13.87
2023-05-10T01:59:33.088Z,13.90
2023-05-10T02:02:03.183Z,13.79
2023-05-10T02:04:32.913Z,13.63
2023-05-10T02:07:00.027Z,13.85
2023-05-10T02:09:28.947Z,13.82
2023-05-10T02:11:56.521Z,13.78
2023-05-10T02:14:25.475Z,13.77
2023-05-10T02:16:54.952Z,13.74
2023-05-10T02:19:26.177Z,13.73
2023-05-10T02:21:55.605Z,13.73
2023-05-10T02:24:24.996Z,13.69
2023-05-10T02:26:54.714Z,13.57
2023-05-10T02:29:25.859Z,13.62
2023-05-10T02:31:55.226Z,13.60
2023-05-10T02:34:27.298Z,13.55
2023-05-10T02:36:55.996Z,13.55
2023-05-10T02:39:23.289Z,13.46
2023-05-10T02:41:51.465Z,13.34
2023-05-10T02:44:20.411Z,13.37
2023-05-10T02:46:48.032Z,13.18
2023-05-10T02:49:15.626Z,13.20
2023-05-10T02:51:48.695Z,13.17
2023-05-10T02:54:27.217Z,13.00
2023-05-10T02:56:59.632Z,13.09
2023-05-10T02:59:26.309Z,13.02
2023-05-10T03:01:53.108Z,12.99
2023-05-10T03:04:19.838Z,12.95
2023-05-10T03:06:46.750Z,12.83
2023-05-10T03:09:16.701Z,12.87
2023-05-10T03:12:12.613Z,12.84
2023-05-10T03:14:58.119Z,12.80
2023-05-10T03:17:55.280Z,12.78
2023-05-10T03:20:27.000Z,12.70
2023-05-10T03:22:59.278Z,12.57
2023-05-10T03:25:33.456Z,12.68
2023-05-10T03:28:03.331Z,12.47
2023-05-10T03:30:30.923Z,12.60
2023-05-10T03:33:05.025Z,12.58
2023-05-10T03:35:31.862Z,12.56
2023-05-10T03:37:58.468Z,12.45
2023-05-10T03:40:26.892Z,12.51
2023-05-10T03:42:53.488Z,12.47
2023-05-10T03:45:22.369Z,12.46
2023-05-10T03:47:49.028Z,12.43
2023-05-10T03:50:15.886Z,12.38
2023-05-10T03:52:42.897Z,12.28
2023-05-10T03:55:11.988Z,12.36
2023-05-10T03:57:41.326Z,12.28
2023-05-10T04:00:08.407Z,12.14
2023-05-10T04:02:38.295Z,12.21
2023-05-10T04:05:08.262Z,12.32
2023-05-10T04:07:34.957Z,12.29
2023-05-10T04:10:06.621Z,12.32
2023-05-10T04:12:33.376Z,12.30
2023-05-10T04:15:02.240Z,12.29
2023-05-10T04:17:28.948Z,12.32
2023-05-10T04:19:58.526Z,12.30
2023-05-10T04:22:28.858Z,12.32
2023-05-10T04:24:55.575Z,12.34
2023-05-10T04:27:22.162Z,12.37
2023-05-10T04:29:49.499Z,12.24
2023-05-10T04:32:17.369Z,12.39
2023-05-10T04:34:44.661Z,12.42
2023-05-10T04:37:11.290Z,12.40
2023-05-10T04:39:42.291Z,12.45
2023-05-10T04:42:12.190Z,12.46
2023-05-10T04:44:38.775Z,12.50
2023-05-10T04:47:05.711Z,12.52
2023-05-10T04:49:34.492Z,12.56
2023-05-10T04:52:03.398Z,12.58
2023-05-10T04:54:29.979Z,12.61
2023-05-10T04:56:56.598Z,12.52
2023-05-10T04:59:23.253Z,12.63
2023-05-10T05:01:49.928Z,12.62
2023-05-10T05:04:18.891Z,12.67
2023-05-10T05:06:45.649Z,12.71
2023-05-10T05:09:12.242Z,12.72
2023-05-10T05:11:39.262Z,12.69
2023-05-10T05:14:05.981Z,12.69
2023-05-10T05:16:34.805Z,12.60
2023-05-10T05:19:02.056Z,12.70
2023-05-10T05:21:29.301Z,12.69
2023-05-10T05:23:58.112Z,12.72
2023-05-10T05:26:24.826Z,12.79
2023-05-10T05:28:54.844Z,12.81
2023-05-10T05:31:22.056Z,12.87
2023-05-10T05:33:48.757Z,12.91
2023-05-10T05:36:15.393Z,12.91
2023-05-10T05:38:42.121Z,12.98
2023-05-10T05:41:08.748Z,13.05
2023-05-10T05:43:38.314Z,13.05
2023-05-10T05:46:05.576Z,13.13
2023-05-10T05:48:34.703Z,13.14
2023-05-10T05:51:01.449Z,13.28
2023-05-10T05:53:30.632Z,13.44
2023-05-10T05:56:01.516Z,13.54
2023-05-10T05:58:30.609Z,13.63
2023-05-10T06:00:57.217Z,13.85
2023-05-10T06:03:26.939Z,14.02
2023-05-10T06:05:54.862Z,14.23
2023-05-10T06:08:21.630Z,14.11
2023-05-10T06:10:48.239Z,14.49
2023-05-10T06:13:17.424Z,14.61
2023-05-10T06:15:46.587Z,14.72
2023-05-10T06:18:15.396Z,14.83
2023-05-10T06:20:43.125Z,14.93
2023-05-10T06:23:12.086Z,15.00
2023-05-10T06:25:38.694Z,15.09
2023-05-10T06:28:05.292Z,15.08
2023-05-10T06:30:31.973Z,15.03
2023-05-10T06:32:58.731Z,15.16
2023-05-10T06:35:25.429Z,15.18
2023-05-10T06:37:52.574Z,15.23
2023-05-10T06:40:19.439Z,15.29
2023-05-10T06:42:49.379Z,15.21
2023-05-10T06:45:19.520Z,15.28
2023-05-10T06:47:48.534Z,15.35
2023-05-10T06:50:15.194Z,15.39
2023-05-10T06:52:41.917Z,15.42
2023-05-10T06:55:11.198Z,15.28
2023-05-10T06:57:37.830Z,15.49
2023-05-10T07:00:08.098Z,15.55
2023-05-10T07:02:37.824Z,15.46
2023-05-10T07:05:04.774Z,15.80
2023-05-10T07:07:31.476Z,15.86
2023-05-10T07:10:00.586Z,15.93
2023-05-10T07:12:29.792Z,15.91
2023-05-10T07:14:58.748Z,15.95
2023-05-10T07:17:27.930Z,15.98
2023-05-10T07:19:57.150Z,15.99
2023-05-10T07:22:25.878Z,16.10
2023-05-10T07:24:57.398Z,16.33
2023-05-10T07:27:26.449Z,16.70
2023-05-10T07:29:55.784Z,17.26
2023-05-10T07:32:25.129Z,17.80
2023-05-10T07:34:54.080Z,18.17
2023-05-10T07:37:20.812Z,18.46
2023-05-10T07:39:49.766Z,19.20
2023-05-10T07:42:18.685Z,20.02
2023-05-10T07:44:45.389Z,21.03
2023-05-10T07:47:12.199Z,21.85
2023-05-10T07:49:39.400Z,22.53
2023-05-10T07:52:05.986Z,23.25
2023-05-10T07:54:32.878Z,23.95
2023-05-10T07:57:00.786Z,24.57
2023-05-10T07:59:27.557Z,25.26
2023-05-10T08:01:54.403Z,25.80
2023-05-10T08:04:21.120Z,26.31
2023-05-10T08:06:50.143Z,26.85
2023-05-10T08:09:17.173Z,27.25
2023-05-10T08:11:43.892Z,27.58
2023-05-10T08:14:10.596Z,27.79
2023-05-10T08:16:39.900Z,27.73
2023-05-10T08:19:09.142Z,27.80
2023-05-10T08:21:36.861Z,27.88
2023-05-10T08:24:06.437Z,28.04
2023-05-10T08:26:37.646Z,28.20
2023-05-10T08:29:04.313Z,28.51
2023-05-10T08:31:33.657Z,28.90
2023-05-10T08:34:02.768Z,29.14
2023-05-10T08:36:33.140Z,29.53
2023-05-10T08:38:59.857Z,29.98
2023-05-10T08:41:31.123Z,30.38
2023-05-10T08:43:57.768Z,30.79
2023-05-10T08:46:24.663Z,30.99
2023-05-10T08:48:53.214Z,31.15
2023-05-10T08:51:23.630Z,31.31
2023-05-10T08:53:50.601Z,31.63
2023-05-10T08:56:18.725Z,31.58
2023-05-10T08:58:45.613Z,30.93
2023-05-10T09:01:16.091Z,30.15
2023-05-10T09:03:45.669Z,29.99
2023-05-10T09:06:14.315Z,29.99
2023-05-10T09:08:42.751Z,29.58
2023-05-10T09:11:11.062Z,29.01
2023-05-10T09:13:37.809Z,28.97
2023-05-10T09:16:13.896Z,28.94
2023-05-10T09:18:48.371Z,28.59
2023-05-10T09:21:15.079Z,28.15
2023-05-10T09:23:48.235Z,27.75
2023-05-10T09:26:15.425Z,27.50
2023-05-10T09:29:01.116Z,27.91
2023-05-10T09:31:47.686Z,27.98
2023-05-10T09:34:29.834Z,28.00
2023-05-10T09:37:05.881Z,27.87
2023-05-10T09:39:42.476Z,28.09
2023-05-10T09:42:10.678Z,28.48
2023-05-10T09:44:39.255Z,28.78
2023-05-10T09:47:07.176Z,29.16
2023-05-10T09:49:34.383Z,29.45
2023-05-10T09:52:05.611Z,29.56
2023-05-10T09:54:35.961Z,29.65
2023-05-10T09:57:06.070Z,29.42
2023-05-10T09:59:35.976Z,29.05
2023-05-10T10:02:03.692Z,29.07
2023-05-10T10:04:30.518Z,29.20
2023-05-10T10:07:04.859Z,29.15
2023-05-10T10:09:34.994Z,29.45
2023-05-10T10:12:03.151Z,29.28
2023-05-10T10:14:30.555Z,28.76
2023-05-10T10:17:08.043Z,28.38
2023-05-10T10:19:36.977Z,27.97
2023-05-10T10:22:04.220Z,27.57
2023-05-10T10:24:33.462Z,27.43
2023-05-10T10:27:16.488Z,27.52
2023-05-10T10:29:53.452Z,27.57
2023-05-10T10:32:31.264Z,27.59
2023-05-10T10:35:01.464Z,27.82
2023-05-10T10:37:44.492Z,27.95
2023-05-10T10:40:35.177Z,27.79
2023-05-10T10:43:24.423Z,27.58
2023-05-10T10:46:11.248Z,27.22
2023-05-10T10:48:37.919Z,26.91
2023-05-10T10:51:04.558Z,26.66
2023-05-10T10:53:31.692Z,26.37
2023-05-10T10:56:10.491Z,26.04
2023-05-10T10:58:41.087Z,25.75
2023-05-10T11:01:16.431Z,25.43
2023-05-10T11:04:08.128Z,25.13
2023-05-10T11:06:39.349Z,24.88
2023-05-10T11:09:10.956Z,24.69
2023-05-10T11:11:49.778Z,24.40
2023-05-10T11:14:24.231Z,24.15
2023-05-10T11:16:51.188Z,24.03
2023-05-10T11:19:18.969Z,24.13
2023-05-10T11:21:50.208Z,24.28
2023-05-10T11:24:23.605Z,24.29
2023-05-10T11:26:54.372Z,24.27
2023-05-10T11:29:21.358Z,24.27
2023-05-10T11:31:49.584Z,24.51
2023-05-10T11:34:32.370Z,24.59
2023-05-10T11:36:59.327Z,24.66
2023-05-10T11:39:30.983Z,24.68
2023-05-10T11:41:59.065Z,24.67
2023-05-10T11:44:33.116Z,24.78
2023-05-10T11:47:01.818Z,25.10
2023-05-10T11:49:28.793Z,25.33
2023-05-10T11:52:05.481Z,25.51
2023-05-10T11:54:32.262Z,25.61
2023-05-10T11:56:58.857Z,25.66
2023-05-10T11:59:26.309Z,25.58
2023-05-10T12:01:53.077Z,25.63
2023-05-10T12:04:20.584Z,25.52
2023-05-10T12:06:50.396Z,25.54
2023-05-10T12:09:28.101Z,25.32
2023-05-10T12:12:03.452Z,24.95
2023-05-10T12:14:34.356Z,24.69
2023-05-10T12:17:00.990Z,24.43
2023-05-10T12:19:27.641Z,24.18
2023-05-10T12:21:58.816Z,23.80
2023-05-10T12:24:26.445Z,23.42
2023-05-10T12:27:05.248Z,23.01
2023-05-10T12:29:34.409Z,22.58
2023-05-10T12:32:01.326Z,22.22
2023-05-10T12:34:37.172Z,21.87
2023-05-10T12:37:07.443Z,21.75
2023-05-10T12:39:50.501Z,21.66
2023-05-10T12:42:17.648Z,21.58
2023-05-10T12:44:44.228Z,21.80
2023-05-10T12:47:13.504Z,21.92
2023-05-10T12:49:42.275Z,22.04
2023-05-10T12:52:11.225Z,22.00
2023-05-10T12:54:37.840Z,22.06
2023-05-10T12:57:04.447Z,22.00
2023-05-10T12:59:31.155Z,21.91
2023-05-10T13:01:59.118Z,21.85
2023-05-10T13:04:25.728Z,21.79
2023-05-10T13:06:52.399Z,21.72
2023-05-10T13:09:19.013Z,21.64
2023-05-10T13:11:49.077Z,21.58
2023-05-10T13:14:18.002Z,21.53
2023-05-10T13:16:44.830Z,21.53
2023-05-10T13:19:12.570Z,21.50
2023-05-10T13:21:47.083Z,21.42
2023-05-10T13:24:16.715Z,21.23
2023-05-10T13:26:45.988Z,21.21
2023-05-10T13:29:12.641Z,21.23
2023-05-10T13:31:39.285Z,21.14
2023-05-10T13:34:06.441Z,21.13
2023-05-10T13:36:33.059Z,21.16
2023-05-10T13:38:59.813Z,21.11
2023-05-10T13:41:26.536Z,21.20
2023-05-10T13:43:56.057Z,21.06
2023-05-10T13:46:25.219Z,21.10
2023-05-10T13:48:51.900Z,21.11
2023-05-10T13:51:18.682Z,20.98
2023-05-10T13:53:45.314Z,21.05
2023-05-10T13:56:11.987Z,20.88
2023-05-10T13:58:38.679Z,20.78
2023-05-10T14:01:05.949Z,20.75
2023-05-10T14:03:33.660Z,20.54
2023-05-10T14:06:00.504Z,20.64
2023-05-10T14:08:28.686Z,20.57
2023-05-10T14:10:57.315Z,20.51
2023-05-10T14:13:24.740Z,20.23
2023-05-10T14:15:57.307Z,20.25
2023-05-10T14:18:24.035Z,19.99
2023-05-10T14:20:50.782Z,20.05
2023-05-10T14:23:17.643Z,19.91
2023-05-10T14:25:44.567Z,20.00
2023-05-10T14:28:11.127Z,20.08
2023-05-10T14:30:40.048Z,20.14
2023-05-10T14:33:09.122Z,20.27
2023-05-10T14:35:35.909Z,20.37
2023-05-10T14:38:04.838Z,20.36
2023-05-10T14:40:34.123Z,20.46
2023-05-10T14:43:03.304Z,20.42
2023-05-10T14:45:30.101Z,20.50
2023-05-10T14:47:56.710Z,20.48
2023-05-10T14:50:36.579Z,20.53
2023-05-10T14:53:04.381Z,20.50
2023-05-10T14:55:33.704Z,20.52
2023-05-10T14:58:00.421Z,20.50
2023-05-10T15:00:28.912Z,20.37
2023-05-10T15:02:58.662Z,20.30
2023-05-10T15:05:25.863Z,20.13
2023-05-10T15:07:53.006Z,19.99
2023-05-10T15:10:24.309Z,19.84
2023-05-10T15:12:53.669Z,19.74
2023-05-10T15:15:22.841Z,19.58
2023-05-10T15:17:49.687Z,19.48
2023-05-10T15:20:18.962Z,19.37
2023-05-10T15:22:45.617Z,19.25
2023-05-10T15:25:15.270Z,18.94
2023-05-10T15:27:44.660Z,18.98
2023-05-10T15:30:11.947Z,18.91
2023-05-10T15:32:41.588Z,18.88
2023-05-10T15:35:11.559Z,18.94
2023-05-10T15:37:40.950Z,19.07
2023-05-10T15:40:07.940Z,19.17
2023-05-10T15:42:36.780Z,19.25
2023-05-10T15:45:03.761Z,19.34
2023-05-10T15:47:31.302Z,19.49
2023-05-10T15:49:58.013Z,19.47
2023-05-10T15:52:24.678Z,19.60
2023-05-10T15:54:51.699Z,19.63
2023-05-10T15:57:20.960Z,19.67
2023-05-10T15:59:47.692Z,19.54
2023-05-10T16:02:14.630Z,19.74
2023-05-10T16:04:46.113Z,19.75
2023-05-10T16:07:12.747Z,19.75
2023-05-10T16:09:39.416Z,19.68
2023-05-10T16:12:06.097Z,19.64
2023-05-10T16:14:32.879Z,19.64
2023-05-10T16:17:03.162Z,19.59
2023-05-10T16:19:31.961Z,19.52
2023-05-10T16:21:58.808Z,19.45
2023-05-10T16:24:27.011Z,19.37
2023-05-10T16:26:53.635Z,19.24
2023-05-10T16:29:22.689Z,19.15
2023-05-10T16:31:49.382Z,19.08
2023-05-10T16:34:16.543Z,19.14
2023-05-10T16:36:45.438Z,19.19
2023-05-10T16:39:12.081Z,19.15
2023-05-10T16:41:38.698Z,19.20
2023-05-10T16:44:05.523Z,19.16
2023-05-10T16:46:33.190Z,19.23
2023-05-10T16:49:00.350Z,19.23
2023-05-10T16:51:38.514Z,19.22
2023-05-10T16:54:07.759Z,19.26
2023-05-10T16:56:34.422Z,19.27
2023-05-10T16:59:01.280Z,19.31
2023-05-10T17:01:30.296Z,19.32
2023-05-10T17:03:59.318Z,19.26
2023-05-10T17:06:26.096Z,19.26
2023-05-10T17:08:54.988Z,19.25
2023-05-10T17:11:21.964Z,19.21
2023-05-10T17:13:48.662Z,19.17
2023-05-10T17:16:15.419Z,18.98
2023-05-10T17:18:45.889Z,19.10
2023-05-10T17:21:12.666Z,19.08
2023-05-10T17:23:39.272Z,19.04
2023-05-10T17:26:09.845Z,19.00
2023-05-10T17:28:36.572Z,18.97
2023-05-10T17:31:03.305Z,18.89
2023-05-10T17:33:32.446Z,18.82
2023-05-10T17:36:01.447Z,18.63
2023-05-10T17:38:28.497Z,18.70
2023-05-10T17:40:55.224Z,18.73
2023-05-10T17:43:26.132Z,18.52
2023-05-10T17:45:53.007Z,18.74
2023-05-10T17:48:22.055Z,18.76
2023-05-10T17:50:52.755Z,18.75
2023-05-10T17:53:21.699Z,18.81
2023-05-10T17:55:48.432Z,18.84
2023-05-10T17:58:17.287Z,18.80
2023-05-10T18:00:43.946Z,18.87
2023-05-10T18:03:11.647Z,18.82
2023-05-10T18:05:40.828Z,18.86
2023-05-10T18:08:08.411Z,18.91
2023-05-10T18:10:39.968Z,18.85
2023-05-10T18:13:08.783Z,18.77
2023-05-10T18:15:35.868Z,18.83
2023-05-10T18:18:04.290Z,18.79
2023-05-10T18:20:31.904Z,18.66
2023-05-10T18:22:58.699Z,18.69
2023-05-10T18:25:27.961Z,18.28
2023-05-10T18:27:54.631Z,18.53
2023-05-10T18:30:22.686Z,18.39
2023-05-10T18:32:49.400Z,18.34
2023-05-10T18:35:16.413Z,18.18
2023-05-10T18:37:45.683Z,18.11
2023-05-10T18:40:14.818Z,18.02
2023-05-10T18:42:44.233Z,17.92
2023-05-10T18:45:11.677Z,17.85
2023-05-10T18:47:38.284Z,17.79
2023-05-10T18:50:05.643Z,17.74
2023-05-10T18:52:32.291Z,17.65
2023-05-10T18:54:58.919Z,17.56
2023-05-10T18:57:25.629Z,17.32
2023-05-10T18:59:52.256Z,17.39
2023-05-10T19:02:19.033Z,17.32
2023-05-10T19:04:46.302Z,17.20
2023-05-10T19:07:13.030Z,17.14
2023-05-10T19:09:39.717Z,17.09
2023-05-10T19:12:06.425Z,17.04
2023-05-10T19:14:33.081Z,16.97
2023-05-10T19:17:02.465Z,16.87
2023-05-10T19:19:30.217Z,16.82
2023-05-10T19:21:56.937Z,16.75
2023-05-10T19:24:25.622Z,16.69
2023-05-10T19:26:52.662Z,16.65
2023-05-10T19:29:21.532Z,16.59
2023-05-10T19:31:48.984Z,16.52
2023-05-10T19:34:16.290Z,16.44
2023-05-10T19:36:42.957Z,16.42
2023-05-10T19:39:11.881Z,16.33
2023-05-10T19:41:38.771Z,16.19
2023-05-10T19:44:07.728Z,16.23
2023-05-10T19:46:34.458Z,16.11
2023-05-10T19:49:01.147Z,16.10
2023-05-10T19:51:27.824Z,15.92
2023-05-10T19:53:57.346Z,15.92
2023-05-10T19:56:23.986Z,15.89
2023-05-10T19:58:53.289Z,15.78
2023-05-10T20:01:20.018Z,15.67
2023-05-10T20:03:46.717Z,15.60
2023-05-10T20:06:13.471Z,15.61
2023-05-10T20:08:40.205Z,15.59
2023-05-10T20:11:06.816Z,15.52
2023-05-10T20:13:33.620Z,15.46
2023-05-10T20:16:00.737Z,15.37
2023-05-10T20:18:32.378Z,15.35
2023-05-10T20:21:00.545Z,15.30
2023-05-10T20:23:29.422Z,15.23
2023-05-10T20:25:56.065Z,15.13
2023-05-10T20:28:27.225Z,15.15
2023-05-10T20:30:55.315Z,15.02
2023-05-10T20:33:22.771Z,15.08
2023-05-10T20:35:52.506Z,15.01
2023-05-10T20:38:21.989Z,14.86
2023-05-10T20:40:51.279Z,14.92
2023-05-10T20:43:18.901Z,14.82
2023-05-10T20:45:45.595Z,14.83
2023-05-10T20:48:12.416Z,14.76
2023-05-10T20:50:41.248Z,14.75
2023-05-10T20:53:14.599Z,14.69
2023-05-10T20:55:41.348Z,14.67
2023-05-10T20:58:10.397Z,14.61
2023-05-10T21:00:39.294Z,14.44
2023-05-10T21:03:06.065Z,14.55
2023-05-10T21:05:32.891Z,14.46
2023-05-10T21:07:59.620Z,14.48
2023-05-10T21:10:28.358Z,14.43
2023-05-10T21:12:55.938Z,14.27
2023-05-10T21:15:24.535Z,14.24
2023-05-10T21:17:51.781Z,14.21
2023-05-10T21:20:18.885Z,14.29
2023-05-10T21:22:45.829Z,14.22
2023-05-10T21:25:14.749Z,14.23
2023-05-10T21:27:41.497Z,14.21
2023-05-10T21:30:11.678Z,14.19
2023-05-10T21:32:38.544Z,14.15
2023-05-10T21:35:05.874Z,14.12
2023-05-10T21:37:32.687Z,14.06
2023-05-10T21:39:59.350Z,14.04
2023-05-10T21:42:26.265Z,13.91
2023-05-10T21:44:53.010Z,13.81
2023-05-10T21:47:22.585Z,13.94
2023-05-10T21:49:50.575Z,13.88
2023-05-10T21:52:17.451Z,13.90
2023-05-10T21:54:44.219Z,13.87
2023-05-10T21:57:10.906Z,13.83
2023-05-10T21:59:40.131Z,13.83
2023-05-10T22:02:06.819Z,13.80
2023-05-10T22:04:33.582Z,13.75
2023-05-10T22:07:00.462Z,13.59
2023-05-10T22:09:27.134Z,13.63
2023-05-10T22:11:53.770Z,13.55
2023-05-10T22:14:22.898Z,13.60
2023-05-10T22:16:51.864Z,13.58
2023-05-10T22:19:18.735Z,13.54
2023-05-10T22:21:47.638Z,13.43
2023-05-10T22:24:14.501Z,13.50
2023-05-10T22:26:43.395Z,13.45
2023-05-10T22:29:12.562Z,13.42
2023-05-10T22:31:39.334Z,13.38
2023-05-10T22:34:06.264Z,13.37
2023-05-10T22:36:32.951Z,13.33
2023-05-10T22:38:59.568Z,13.26
2023-05-10T22:41:26.280Z,13.28
2023-05-10T22:43:55.557Z,13.26
2023-05-10T22:46:22.295Z,13.24
2023-05-10T22:48:49.069Z,13.20
2023-05-10T22:51:21.212Z,13.15
2023-05-10T22:53:48.107Z,13.05
2023-05-10T22:56:17.370Z,13.06
2023-05-10T22:58:44.285Z,12.92
2023-05-10T23:01:11.131Z,12.97
2023-05-10T23:03:37.772Z,12.81
2023-05-10T23:06:04.994Z,12.94
2023-05-10T23:08:36.583Z,12.83
2023-05-10T23:11:03.312Z,12.77
2023-05-10T23:13:29.989Z,12.87
2023-05-10T23:15:56.851Z,12.85
2023-05-10T23:18:25.877Z,12.73
2023-05-10T23:20:55.409Z,12.78
2023-05-10T23:23:24.637Z,12.78
2023-05-10T23:25:53.456Z,12.72
2023-05-10T23:28:20.141Z,12.71
2023-05-10T23:30:46.944Z,12.71
2023-05-10T23:33:14.364Z,12.70
2023-05-10T23:35:41.361Z,12.68
2023-05-10T23:38:08.155Z,12.64
2023-05-10T23:40:35.726Z,12.61
2023-05-10T23:43:02.610Z,12.53
2023-05-10T23:45:29.391Z,12.43
2023-05-10T23:47:56.265Z,12.51
2023-05-10T23:50:23.045Z,12.53
2023-05-10T23:52:49.640Z,12.50
2023-05-10T23:55:16.464Z,12.47
2023-05-10T23:57:45.471Z,12.37
